sensor_id;sensor_type;location;lat;lon;timestamp;temperature;humidity
2897;DHT22;1458;49.728;9.228;2024-01-25T00:02:22;9.70;70.30
2897;DHT22;1458;49.728;9.228;2024-01-25T00:04:50;9.70;69.90
2897;DHT22;1458;49.728;9.228;2024-01-25T00:07:17;9.70;70.00
2897;DHT22;1458;49.728;9.228;2024-01-25T00:09:44;9.60;70.40
2897;DHT22;1458;49.728;9.228;2024-01-25T00:12:13;9.60;70.60
2897;DHT22;1458;49.728;9.228;2024-01-25T00:14:41;9.60;70.70
2897;DHT22;1458;49.728;9.228;2024-01-25T00:17:08;9.50;70.60
2897;DHT22;1458;49.728;9.228;2024-01-25T00:19:36;9.40;71.30
2897;DHT22;1458;49.728;9.228;2024-01-25T00:22:05;9.40;70.70
2897;DHT22;1458;49.728;9.228;2024-01-25T00:24:33;9.50;70.20
2897;DHT22;1458;49.728;9.228;2024-01-25T00:27:00;9.60;69.70
2897;DHT22;1458;49.728;9.228;2024-01-25T00:29:30;9.60;69.20
2897;DHT22;1458;49.728;9.228;2024-01-25T00:31:58;9.60;69.20
2897;DHT22;1458;49.728;9.228;2024-01-25T00:34:26;9.70;69.20
2897;DHT22;1458;49.728;9.228;2024-01-25T00:36:54;9.70;68.60
2897;DHT22;1458;49.728;9.228;2024-01-25T00:39:22;9.60;68.30
2897;DHT22;1458;49.728;9.228;2024-01-25T00:41:51;9.50;68.40
2897;DHT22;1458;49.728;9.228;2024-01-25T00:44:19;9.40;69.00
2897;DHT22;1458;49.728;9.228;2024-01-25T00:46:49;9.40;69.00
2897;DHT22;1458;49.728;9.228;2024-01-25T00:49:19;9.40;68.10
2897;DHT22;1458;49.728;9.228;2024-01-25T00:51:48;9.40;67.80
2897;DHT22;1458;49.728;9.228;2024-01-25T00:54:16;9.30;67.90
2897;DHT22;1458;49.728;9.228;2024-01-25T00:56:44;9.40;66.80
2897;DHT22;1458;49.728;9.228;2024-01-25T00:59:14;9.50;65.50
2897;DHT22;1458;49.728;9.228;2024-01-25T01:01:44;9.40;65.30
2897;DHT22;1458;49.728;9.228;2024-01-25T01:04:15;9.30;65.90
2897;DHT22;1458;49.728;9.228;2024-01-25T01:06:44;9.40;64.90
2897;DHT22;1458;49.728;9.228;2024-01-25T01:09:13;9.30;64.90
2897;DHT22;1458;49.728;9.228;2024-01-25T01:11:41;9.30;64.70
2897;DHT22;1458;49.728;9.228;2024-01-25T01:14:08;9.30;64.60
2897;DHT22;1458;49.728;9.228;2024-01-25T01:16:36;9.40;64.30
2897;DHT22;1458;49.728;9.228;2024-01-25T01:19:03;9.30;64.60
2897;DHT22;1458;49.728;9.228;2024-01-25T01:21:36;9.20;65.00
2897;DHT22;1458;49.728;9.228;2024-01-25T01:24:04;9.20;64.80
2897;DHT22;1458;49.728;9.228;2024-01-25T01:26:32;9.30;64.70
2897;DHT22;1458;49.728;9.228;2024-01-25T01:29:00;9.30;64.90
2897;DHT22;1458;49.728;9.228;2024-01-25T01:31:28;9.40;64.50
2897;DHT22;1458;49.728;9.228;2024-01-25T01:33:55;9.50;63.60
2897;DHT22;1458;49.728;9.228;2024-01-25T01:36:23;9.50;63.40
2897;DHT22;1458;49.728;9.228;2024-01-25T01:38:52;9.50;63.40
2897;DHT22;1458;49.728;9.228;2024-01-25T01:41:20;9.50;63.50
2897;DHT22;1458;49.728;9.228;2024-01-25T01:43:47;9.40;63.40
2897;DHT22;1458;49.728;9.228;2024-01-25T01:46:26;9.50;63.90
2897;DHT22;1458;49.728;9.228;2024-01-25T01:48:57;9.50;63.30
2897;DHT22;1458;49.728;9.228;2024-01-25T01:51:24;9.50;63.40
2897;DHT22;1458;49.728;9.228;2024-01-25T01:53:54;9.40;63.80
2897;DHT22;1458;49.728;9.228;2024-01-25T01:56:22;9.30;63.90
2897;DHT22;1458;49.728;9.228;2024-01-25T01:58:51;9.40;64.30
2897;DHT22;1458;49.728;9.228;2024-01-25T02:01:24;9.40;64.20
2897;DHT22;1458;49.728;9.228;2024-01-25T02:03:51;9.50;64.00
2897;DHT22;1458;49.728;9.228;2024-01-25T02:06:20;9.50;63.90
2897;DHT22;1458;49.728;9.228;2024-01-25T02:08:47;9.40;64.90
2897;DHT22;1458;49.728;9.228;2024-01-25T02:11:18;9.40;64.60
2897;DHT22;1458;49.728;9.228;2024-01-25T02:13:45;9.40;64.90
2897;DHT22;1458;49.728;9.228;2024-01-25T02:16:13;9.30;65.70
2897;DHT22;1458;49.728;9.228;2024-01-25T02:18:42;9.30;65.30
2897;DHT22;1458;49.728;9.228;2024-01-25T02:21:10;9.30;65.30
2897;DHT22;1458;49.728;9.228;2024-01-25T02:23:39;9.20;65.80
2897;DHT22;1458;49.728;9.228;2024-01-25T02:26:08;9.10;66.00
2897;DHT22;1458;49.728;9.228;2024-01-25T02:28:35;9.10;66.50
2897;DHT22;1458;49.728;9.228;2024-01-25T02:31:05;8.90;67.40
2897;DHT22;1458;49.728;9.228;2024-01-25T02:33:33;9.00;67.60
2897;DHT22;1458;49.728;9.228;2024-01-25T02:36:00;9.00;67.70
2897;DHT22;1458;49.728;9.228;2024-01-25T02:38:28;9.00;67.70
2897;DHT22;1458;49.728;9.228;2024-01-25T02:40:56;8.80;68.60
2897;DHT22;1458;49.728;9.228;2024-01-25T02:43:24;8.80;68.70
2897;DHT22;1458;49.728;9.228;2024-01-25T02:45:52;8.90;68.70
2897;DHT22;1458;49.728;9.228;2024-01-25T02:48:20;8.90;68.70
2897;DHT22;1458;49.728;9.228;2024-01-25T02:50:47;8.80;69.00
2897;DHT22;1458;49.728;9.228;2024-01-25T02:53:14;8.80;68.70
2897;DHT22;1458;49.728;9.228;2024-01-25T02:55:44;8.80;68.70
2897;DHT22;1458;49.728;9.228;2024-01-25T02:58:13;8.80;69.10
2897;DHT22;1458;49.728;9.228;2024-01-25T03:00:42;8.70;69.30
2897;DHT22;1458;49.728;9.228;2024-01-25T03:03:10;8.60;69.90
2897;DHT22;1458;49.728;9.228;2024-01-25T03:05:37;8.60;70.20
2897;DHT22;1458;49.728;9.228;2024-01-25T03:08:06;8.60;70.40
2897;DHT22;1458;49.728;9.228;2024-01-25T03:10:33;8.60;71.10
2897;DHT22;1458;49.728;9.228;2024-01-25T03:13:00;8.80;69.70
2897;DHT22;1458;49.728;9.228;2024-01-25T03:15:29;8.80;69.60
2897;DHT22;1458;49.728;9.228;2024-01-25T03:17:57;8.90;69.30
2897;DHT22;1458;49.728;9.228;2024-01-25T03:20:25;9.00;69.50
2897;DHT22;1458;49.728;9.228;2024-01-25T03:22:52;9.10;68.80
2897;DHT22;1458;49.728;9.228;2024-01-25T03:25:20;9.10;68.80
2897;DHT22;1458;49.728;9.228;2024-01-25T03:27:47;9.10;68.80
2897;DHT22;1458;49.728;9.228;2024-01-25T03:30:15;9.00;68.70
2897;DHT22;1458;49.728;9.228;2024-01-25T03:32:46;9.10;68.80
2897;DHT22;1458;49.728;9.228;2024-01-25T03:35:13;9.10;68.80
2897;DHT22;1458;49.728;9.228;2024-01-25T03:37:41;8.80;68.70
2897;DHT22;1458;49.728;9.228;2024-01-25T03:40:09;8.70;69.80
2897;DHT22;1458;49.728;9.228;2024-01-25T03:42:36;8.80;69.30
2897;DHT22;1458;49.728;9.228;2024-01-25T03:45:05;8.70;69.90
2897;DHT22;1458;49.728;9.228;2024-01-25T03:47:33;8.50;70.80
2897;DHT22;1458;49.728;9.228;2024-01-25T03:50:02;8.70;70.90
2897;DHT22;1458;49.728;9.228;2024-01-25T03:52:30;8.70;70.70
2897;DHT22;1458;49.728;9.228;2024-01-25T03:54:58;8.60;71.20
2897;DHT22;1458;49.728;9.228;2024-01-25T03:57:25;8.50;71.40
2897;DHT22;1458;49.728;9.228;2024-01-25T03:59:52;8.30;72.10
2897;DHT22;1458;49.728;9.228;2024-01-25T04:02:20;8.10;73.20
2897;DHT22;1458;49.728;9.228;2024-01-25T04:04:47;8.30;72.80
2897;DHT22;1458;49.728;9.228;2024-01-25T04:07:17;8.20;72.90
2897;DHT22;1458;49.728;9.228;2024-01-25T04:09:44;8.20;73.40
2897;DHT22;1458;49.728;9.228;2024-01-25T04:12:12;8.20;73.70
2897;DHT22;1458;49.728;9.228;2024-01-25T04:14:39;8.30;73.60
2897;DHT22;1458;49.728;9.228;2024-01-25T04:17:06;8.50;72.80
2897;DHT22;1458;49.728;9.228;2024-01-25T04:19:35;8.50;72.30
2897;DHT22;1458;49.728;9.228;2024-01-25T04:22:03;8.50;72.40
2897;DHT22;1458;49.728;9.228;2024-01-25T04:24:32;8.60;72.10
2897;DHT22;1458;49.728;9.228;2024-01-25T04:27:00;8.60;72.10
2897;DHT22;1458;49.728;9.228;2024-01-25T04:29:27;8.50;72.20
2897;DHT22;1458;49.728;9.228;2024-01-25T04:31:54;8.50;71.90
2897;DHT22;1458;49.728;9.228;2024-01-25T04:34:22;8.40;72.30
2897;DHT22;1458;49.728;9.228;2024-01-25T04:36:49;8.10;72.90
2897;DHT22;1458;49.728;9.228;2024-01-25T04:39:17;8.10;73.60
2897;DHT22;1458;49.728;9.228;2024-01-25T04:41:45;8.00;74.20
2897;DHT22;1458;49.728;9.228;2024-01-25T04:44:13;8.10;74.20
2897;DHT22;1458;49.728;9.228;2024-01-25T04:46:41;7.90;74.40
2897;DHT22;1458;49.728;9.228;2024-01-25T04:49:09;7.80;74.80
2897;DHT22;1458;49.728;9.228;2024-01-25T04:51:36;7.80;75.60
2897;DHT22;1458;49.728;9.228;2024-01-25T04:54:04;7.60;76.70
2897;DHT22;1458;49.728;9.228;2024-01-25T04:56:32;7.40;77.20
2897;DHT22;1458;49.728;9.228;2024-01-25T04:59:01;7.40;78.70
2897;DHT22;1458;49.728;9.228;2024-01-25T05:01:28;7.60;78.70
2897;DHT22;1458;49.728;9.228;2024-01-25T05:03:56;7.20;76.70
2897;DHT22;1458;49.728;9.228;2024-01-25T05:06:23;7.30;79.60
2897;DHT22;1458;49.728;9.228;2024-01-25T05:08:50;7.30;79.50
2897;DHT22;1458;49.728;9.228;2024-01-25T05:11:18;7.30;79.30
2897;DHT22;1458;49.728;9.228;2024-01-25T05:13:45;7.10;79.50
2897;DHT22;1458;49.728;9.228;2024-01-25T05:16:14;7.30;82.00
2897;DHT22;1458;49.728;9.228;2024-01-25T05:18:41;7.40;81.20
2897;DHT22;1458;49.728;9.228;2024-01-25T05:21:09;7.50;80.60
2897;DHT22;1458;49.728;9.228;2024-01-25T05:23:36;7.60;79.50
2897;DHT22;1458;49.728;9.228;2024-01-25T05:26:05;7.50;79.60
2897;DHT22;1458;49.728;9.228;2024-01-25T05:28:33;7.30;80.70
2897;DHT22;1458;49.728;9.228;2024-01-25T05:31:00;7.50;80.60
2897;DHT22;1458;49.728;9.228;2024-01-25T05:33:29;7.60;79.70
2897;DHT22;1458;49.728;9.228;2024-01-25T05:35:57;7.60;79.50
2897;DHT22;1458;49.728;9.228;2024-01-25T05:38:25;7.80;79.30
2897;DHT22;1458;49.728;9.228;2024-01-25T05:40:52;7.60;78.90
2897;DHT22;1458;49.728;9.228;2024-01-25T05:43:20;7.50;79.60
2897;DHT22;1458;49.728;9.228;2024-01-25T05:45:47;7.60;79.60
2897;DHT22;1458;49.728;9.228;2024-01-25T05:48:15;7.40;79.70
2897;DHT22;1458;49.728;9.228;2024-01-25T05:50:44;7.30;80.70
2897;DHT22;1458;49.728;9.228;2024-01-25T05:53:11;7.30;81.50
2897;DHT22;1458;49.728;9.228;2024-01-25T05:55:39;7.10;82.00
2897;DHT22;1458;49.728;9.228;2024-01-25T05:58:07;7.00;83.20
2897;DHT22;1458;49.728;9.228;2024-01-25T06:00:34;6.80;83.90
2897;DHT22;1458;49.728;9.228;2024-01-25T06:03:02;6.70;85.90
2897;DHT22;1458;49.728;9.228;2024-01-25T06:05:29;6.80;87.90
2897;DHT22;1458;49.728;9.228;2024-01-25T06:07:58;6.60;87.60
2897;DHT22;1458;49.728;9.228;2024-01-25T06:10:26;6.50;89.60
2897;DHT22;1458;49.728;9.228;2024-01-25T06:12:53;6.50;90.00
2897;DHT22;1458;49.728;9.228;2024-01-25T06:15:21;6.60;90.90
2897;DHT22;1458;49.728;9.228;2024-01-25T06:17:48;6.50;90.60
2897;DHT22;1458;49.728;9.228;2024-01-25T06:20:16;6.60;91.10
2897;DHT22;1458;49.728;9.228;2024-01-25T06:22:43;6.60;91.00
2897;DHT22;1458;49.728;9.228;2024-01-25T06:25:12;6.50;90.90
2897;DHT22;1458;49.728;9.228;2024-01-25T06:27:39;6.40;91.30
2897;DHT22;1458;49.728;9.228;2024-01-25T06:30:07;6.20;91.70
2897;DHT22;1458;49.728;9.228;2024-01-25T06:32:35;6.10;93.00
2897;DHT22;1458;49.728;9.228;2024-01-25T06:35:03;5.90;94.00
2897;DHT22;1458;49.728;9.228;2024-01-25T06:37:31;5.80;95.30
2897;DHT22;1458;49.728;9.228;2024-01-25T06:39:59;6.00;98.70
2897;DHT22;1458;49.728;9.228;2024-01-25T06:42:28;6.50;97.40
2897;DHT22;1458;49.728;9.228;2024-01-25T06:44:55;6.70;95.10
2897;DHT22;1458;49.728;9.228;2024-01-25T06:47:22;6.70;93.70
2897;DHT22;1458;49.728;9.228;2024-01-25T06:49:50;6.70;94.10
2897;DHT22;1458;49.728;9.228;2024-01-25T06:52:18;6.70;93.80
2897;DHT22;1458;49.728;9.228;2024-01-25T06:54:45;6.50;93.60
2897;DHT22;1458;49.728;9.228;2024-01-25T06:57:13;6.30;93.90
2897;DHT22;1458;49.728;9.228;2024-01-25T06:59:42;6.30;94.30
2897;DHT22;1458;49.728;9.228;2024-01-25T07:02:09;6.10;94.90
2897;DHT22;1458;49.728;9.228;2024-01-25T07:04:37;6.10;94.90
2897;DHT22;1458;49.728;9.228;2024-01-25T07:07:06;6.20;95.90
2897;DHT22;1458;49.728;9.228;2024-01-25T07:09:33;6.10;95.20
2897;DHT22;1458;49.728;9.228;2024-01-25T07:12:01;6.10;95.70
2897;DHT22;1458;49.728;9.228;2024-01-25T07:14:28;5.90;94.60
2897;DHT22;1458;49.728;9.228;2024-01-25T07:16:57;6.00;95.70
2897;DHT22;1458;49.728;9.228;2024-01-25T07:19:25;5.80;95.00
2897;DHT22;1458;49.728;9.228;2024-01-25T07:21:52;5.60;95.30
2897;DHT22;1458;49.728;9.228;2024-01-25T07:24:20;5.60;97.50
2897;DHT22;1458;49.728;9.228;2024-01-25T07:26:47;5.60;98.00
2897;DHT22;1458;49.728;9.228;2024-01-25T07:29:14;5.50;98.40
2897;DHT22;1458;49.728;9.228;2024-01-25T07:31:42;5.40;99.90
2897;DHT22;1458;49.728;9.228;2024-01-25T07:34:11;5.20;99.70
2897;DHT22;1458;49.728;9.228;2024-01-25T07:36:38;5.10;99.90
2897;DHT22;1458;49.728;9.228;2024-01-25T07:39:05;5.10;99.90
2897;DHT22;1458;49.728;9.228;2024-01-25T07:41:34;5.00;99.90
2897;DHT22;1458;49.728;9.228;2024-01-25T07:44:01;5.00;99.90
2897;DHT22;1458;49.728;9.228;2024-01-25T07:46:29;5.00;99.90
2897;DHT22;1458;49.728;9.228;2024-01-25T07:48:56;5.00;99.90
2897;DHT22;1458;49.728;9.228;2024-01-25T07:51:25;5.00;99.90
2897;DHT22;1458;49.728;9.228;2024-01-25T07:53:54;5.30;99.90
2897;DHT22;1458;49.728;9.228;2024-01-25T07:56:21;5.20;99.90
2897;DHT22;1458;49.728;9.228;2024-01-25T07:58:49;5.30;99.90
2897;DHT22;1458;49.728;9.228;2024-01-25T08:01:18;5.30;99.90
2897;DHT22;1458;49.728;9.228;2024-01-25T08:03:45;5.20;99.90
2897;DHT22;1458;49.728;9.228;2024-01-25T08:06:13;5.30;99.90
2897;DHT22;1458;49.728;9.228;2024-01-25T08:08:42;5.30;99.90
2897;DHT22;1458;49.728;9.228;2024-01-25T08:11:10;5.40;99.90
2897;DHT22;1458;49.728;9.228;2024-01-25T08:13:37;5.40;99.90
2897;DHT22;1458;49.728;9.228;2024-01-25T08:16:09;5.30;99.90
2897;DHT22;1458;49.728;9.228;2024-01-25T08:18:37;5.10;99.90
2897;DHT22;1458;49.728;9.228;2024-01-25T08:21:05;5.20;99.90
2897;DHT22;1458;49.728;9.228;2024-01-25T08:23:36;5.20;99.90
2897;DHT22;1458;49.728;9.228;2024-01-25T08:26:06;5.30;99.90
2897;DHT22;1458;49.728;9.228;2024-01-25T08:28:35;5.30;99.90
2897;DHT22;1458;49.728;9.228;2024-01-25T08:31:03;5.40;99.90
2897;DHT22;1458;49.728;9.228;2024-01-25T08:33:30;5.40;99.90
2897;DHT22;1458;49.728;9.228;2024-01-25T08:35:58;5.40;99.90
2897;DHT22;1458;49.728;9.228;2024-01-25T08:38:26;5.60;99.90
2897;DHT22;1458;49.728;9.228;2024-01-25T08:40:53;5.70;99.90
2897;DHT22;1458;49.728;9.228;2024-01-25T08:43:22;6.00;99.90
2897;DHT22;1458;49.728;9.228;2024-01-25T08:45:50;6.10;99.90
2897;DHT22;1458;49.728;9.228;2024-01-25T08:48:17;6.20;99.90
2897;DHT22;1458;49.728;9.228;2024-01-25T08:50:45;6.30;99.90
2897;DHT22;1458;49.728;9.228;2024-01-25T08:53:12;6.30;99.90
2897;DHT22;1458;49.728;9.228;2024-01-25T08:55:40;6.40;99.90
2897;DHT22;1458;49.728;9.228;2024-01-25T08:58:07;6.60;99.90
2897;DHT22;1458;49.728;9.228;2024-01-25T09:00:37;6.80;99.90
2897;DHT22;1458;49.728;9.228;2024-01-25T09:03:04;7.00;98.60
2897;DHT22;1458;49.728;9.228;2024-01-25T09:05:32;7.10;97.20
2897;DHT22;1458;49.728;9.228;2024-01-25T09:08:04;7.30;96.30
2897;DHT22;1458;49.728;9.228;2024-01-25T09:10:31;7.50;95.10
2897;DHT22;1458;49.728;9.228;2024-01-25T09:12:59;7.90;92.10
2897;DHT22;1458;49.728;9.228;2024-01-25T09:15:26;8.20;90.60
2897;DHT22;1458;49.728;9.228;2024-01-25T09:17:56;8.30;88.90
2897;DHT22;1458;49.728;9.228;2024-01-25T09:20:23;8.50;87.10
2897;DHT22;1458;49.728;9.228;2024-01-25T09:22:51;8.70;85.00
2897;DHT22;1458;49.728;9.228;2024-01-25T09:25:19;8.90;82.80
2897;DHT22;1458;49.728;9.228;2024-01-25T09:27:47;9.00;81.50
2897;DHT22;1458;49.728;9.228;2024-01-25T09:30:15;9.10;79.10
2897;DHT22;1458;49.728;9.228;2024-01-25T09:32:43;9.10;79.30
2897;DHT22;1458;49.728;9.228;2024-01-25T09:35:12;9.20;78.50
2897;DHT22;1458;49.728;9.228;2024-01-25T09:37:39;9.30;78.00
2897;DHT22;1458;49.728;9.228;2024-01-25T09:40:07;9.40;76.90
2897;DHT22;1458;49.728;9.228;2024-01-25T09:42:36;9.40;76.50
2897;DHT22;1458;49.728;9.228;2024-01-25T09:45:06;9.50;75.30
2897;DHT22;1458;49.728;9.228;2024-01-25T09:47:34;9.50;74.80
2897;DHT22;1458;49.728;9.228;2024-01-25T09:50:02;9.60;73.90
2897;DHT22;1458;49.728;9.228;2024-01-25T09:52:31;9.60;74.30
2897;DHT22;1458;49.728;9.228;2024-01-25T09:55:00;9.60;73.20
2897;DHT22;1458;49.728;9.228;2024-01-25T09:57:28;9.70;72.70
2897;DHT22;1458;49.728;9.228;2024-01-25T09:59:57;9.80;73.30
2897;DHT22;1458;49.728;9.228;2024-01-25T10:02:25;10.00;71.40
2897;DHT22;1458;49.728;9.228;2024-01-25T10:04:53;10.10;70.40
2897;DHT22;1458;49.728;9.228;2024-01-25T10:07:38;10.20;68.60
2897;DHT22;1458;49.728;9.228;2024-01-25T10:10:06;10.40;67.80
2897;DHT22;1458;49.728;9.228;2024-01-25T10:12:34;10.40;66.80
2897;DHT22;1458;49.728;9.228;2024-01-25T10:15:03;10.50;66.70
2897;DHT22;1458;49.728;9.228;2024-01-25T10:17:32;10.70;66.30
2897;DHT22;1458;49.728;9.228;2024-01-25T10:19:59;10.70;66.50
2897;DHT22;1458;49.728;9.228;2024-01-25T10:22:27;10.80;65.20
2897;DHT22;1458;49.728;9.228;2024-01-25T10:24:55;10.60;64.00
2897;DHT22;1458;49.728;9.228;2024-01-25T10:27:23;10.50;65.30
2897;DHT22;1458;49.728;9.228;2024-01-25T10:29:50;10.40;65.70
2897;DHT22;1458;49.728;9.228;2024-01-25T10:32:18;10.30;64.10
2897;DHT22;1458;49.728;9.228;2024-01-25T10:34:46;10.40;64.90
2897;DHT22;1458;49.728;9.228;2024-01-25T10:37:14;10.40;64.80
2897;DHT22;1458;49.728;9.228;2024-01-25T10:39:43;10.40;63.10
2897;DHT22;1458;49.728;9.228;2024-01-25T10:42:13;10.50;64.00
2897;DHT22;1458;49.728;9.228;2024-01-25T10:44:40;10.40;64.90
2897;DHT22;1458;49.728;9.228;2024-01-25T10:47:08;10.60;63.80
2897;DHT22;1458;49.728;9.228;2024-01-25T10:49:36;10.70;63.90
2897;DHT22;1458;49.728;9.228;2024-01-25T10:52:05;10.70;62.60
2897;DHT22;1458;49.728;9.228;2024-01-25T10:54:33;10.70;61.90
2897;DHT22;1458;49.728;9.228;2024-01-25T10:57:02;10.60;62.60
2897;DHT22;1458;49.728;9.228;2024-01-25T10:59:34;10.60;62.70
2897;DHT22;1458;49.728;9.228;2024-01-25T11:02:02;10.70;62.90
2897;DHT22;1458;49.728;9.228;2024-01-25T11:04:30;10.70;64.00
2897;DHT22;1458;49.728;9.228;2024-01-25T11:07:06;10.80;62.30
2897;DHT22;1458;49.728;9.228;2024-01-25T11:09:35;10.90;62.80
2897;DHT22;1458;49.728;9.228;2024-01-25T11:12:11;11.10;62.30
2897;DHT22;1458;49.728;9.228;2024-01-25T11:14:41;11.30;60.10
2897;DHT22;1458;49.728;9.228;2024-01-25T11:17:15;11.20;58.20
2897;DHT22;1458;49.728;9.228;2024-01-25T11:19:45;11.30;58.70
2897;DHT22;1458;49.728;9.228;2024-01-25T11:22:13;11.20;60.20
2897;DHT22;1458;49.728;9.228;2024-01-25T11:24:40;11.20;59.40
2897;DHT22;1458;49.728;9.228;2024-01-25T11:27:09;11.20;59.80
2897;DHT22;1458;49.728;9.228;2024-01-25T11:29:38;11.30;57.50
2897;DHT22;1458;49.728;9.228;2024-01-25T11:32:07;11.50;58.90
2897;DHT22;1458;49.728;9.228;2024-01-25T11:34:36;11.40;59.80
2897;DHT22;1458;49.728;9.228;2024-01-25T11:37:03;11.40;60.40
2897;DHT22;1458;49.728;9.228;2024-01-25T11:39:32;11.30;58.70
2897;DHT22;1458;49.728;9.228;2024-01-25T11:41:59;11.20;59.50
2897;DHT22;1458;49.728;9.228;2024-01-25T11:44:27;11.20;60.60
2897;DHT22;1458;49.728;9.228;2024-01-25T11:46:55;11.40;61.50
2897;DHT22;1458;49.728;9.228;2024-01-25T11:49:25;11.50;59.00
2897;DHT22;1458;49.728;9.228;2024-01-25T11:51:52;11.50;57.00
2897;DHT22;1458;49.728;9.228;2024-01-25T11:54:19;11.40;55.80
2897;DHT22;1458;49.728;9.228;2024-01-25T11:56:47;11.30;55.70
2897;DHT22;1458;49.728;9.228;2024-01-25T11:59:15;11.20;58.30
2897;DHT22;1458;49.728;9.228;2024-01-25T12:01:43;11.20;57.50
2897;DHT22;1458;49.728;9.228;2024-01-25T12:04:10;11.10;57.20
2897;DHT22;1458;49.728;9.228;2024-01-25T12:06:39;11.10;58.40
2897;DHT22;1458;49.728;9.228;2024-01-25T12:09:08;11.00;57.10
2897;DHT22;1458;49.728;9.228;2024-01-25T12:11:36;11.10;55.70
2897;DHT22;1458;49.728;9.228;2024-01-25T12:14:07;11.30;55.40
2897;DHT22;1458;49.728;9.228;2024-01-25T12:16:36;11.30;55.00
2897;DHT22;1458;49.728;9.228;2024-01-25T12:19:03;11.30;54.10
2897;DHT22;1458;49.728;9.228;2024-01-25T12:21:32;11.50;54.70
2897;DHT22;1458;49.728;9.228;2024-01-25T12:24:02;11.50;53.30
2897;DHT22;1458;49.728;9.228;2024-01-25T12:26:34;11.40;54.90
2897;DHT22;1458;49.728;9.228;2024-01-25T12:29:02;11.50;53.10
2897;DHT22;1458;49.728;9.228;2024-01-25T12:31:31;11.50;52.60
2897;DHT22;1458;49.728;9.228;2024-01-25T12:33:59;11.50;52.60
2897;DHT22;1458;49.728;9.228;2024-01-25T12:36:27;11.50;50.90
2897;DHT22;1458;49.728;9.228;2024-01-25T12:38:54;11.40;50.30
2897;DHT22;1458;49.728;9.228;2024-01-25T12:41:23;11.50;50.60
2897;DHT22;1458;49.728;9.228;2024-01-25T12:43:51;11.40;51.50
2897;DHT22;1458;49.728;9.228;2024-01-25T12:46:18;11.40;51.10
2897;DHT22;1458;49.728;9.228;2024-01-25T12:48:46;11.30;52.50
2897;DHT22;1458;49.728;9.228;2024-01-25T12:51:15;11.20;51.80
2897;DHT22;1458;49.728;9.228;2024-01-25T12:53:42;11.20;51.40
2897;DHT22;1458;49.728;9.228;2024-01-25T12:56:10;11.10;51.80
2897;DHT22;1458;49.728;9.228;2024-01-25T12:58:39;11.10;53.90
2897;DHT22;1458;49.728;9.228;2024-01-25T13:01:07;11.10;52.40
2897;DHT22;1458;49.728;9.228;2024-01-25T13:03:35;11.30;49.70
2897;DHT22;1458;49.728;9.228;2024-01-25T13:06:03;11.30;50.00
2897;DHT22;1458;49.728;9.228;2024-01-25T13:08:31;11.30;50.40
2897;DHT22;1458;49.728;9.228;2024-01-25T13:10:58;11.30;50.00
2897;DHT22;1458;49.728;9.228;2024-01-25T13:13:26;11.40;48.90
2897;DHT22;1458;49.728;9.228;2024-01-25T13:15:55;11.40;48.90
2897;DHT22;1458;49.728;9.228;2024-01-25T13:18:23;11.50;47.30
2897;DHT22;1458;49.728;9.228;2024-01-25T13:20:50;11.40;48.00
2897;DHT22;1458;49.728;9.228;2024-01-25T13:23:17;11.40;47.00
2897;DHT22;1458;49.728;9.228;2024-01-25T13:25:45;11.40;45.60
2897;DHT22;1458;49.728;9.228;2024-01-25T13:28:13;11.30;48.10
2897;DHT22;1458;49.728;9.228;2024-01-25T13:30:40;11.40;47.40
2897;DHT22;1458;49.728;9.228;2024-01-25T13:33:09;11.40;46.40
2897;DHT22;1458;49.728;9.228;2024-01-25T13:35:36;11.50;48.30
2897;DHT22;1458;49.728;9.228;2024-01-25T13:38:03;11.60;46.30
2897;DHT22;1458;49.728;9.228;2024-01-25T13:40:31;11.70;46.90
2897;DHT22;1458;49.728;9.228;2024-01-25T13:42:58;11.80;45.80
2897;DHT22;1458;49.728;9.228;2024-01-25T13:45:26;11.90;45.00
2897;DHT22;1458;49.728;9.228;2024-01-25T13:47:53;11.80;43.50
2897;DHT22;1458;49.728;9.228;2024-01-25T13:50:22;11.80;44.80
2897;DHT22;1458;49.728;9.228;2024-01-25T13:52:49;11.70;44.00
2897;DHT22;1458;49.728;9.228;2024-01-25T13:55:17;11.50;45.60
2897;DHT22;1458;49.728;9.228;2024-01-25T13:57:44;11.50;46.00
2897;DHT22;1458;49.728;9.228;2024-01-25T14:00:13;11.50;45.90
2897;DHT22;1458;49.728;9.228;2024-01-25T14:02:41;11.50;46.10
2897;DHT22;1458;49.728;9.228;2024-01-25T14:05:10;11.50;47.60
2897;DHT22;1458;49.728;9.228;2024-01-25T14:07:39;11.40;46.50
2897;DHT22;1458;49.728;9.228;2024-01-25T14:10:08;11.40;47.20
2897;DHT22;1458;49.728;9.228;2024-01-25T14:12:36;11.40;46.50
2897;DHT22;1458;49.728;9.228;2024-01-25T14:15:04;11.40;46.90
2897;DHT22;1458;49.728;9.228;2024-01-25T14:17:32;11.40;45.60
2897;DHT22;1458;49.728;9.228;2024-01-25T14:20:00;11.20;46.60
2897;DHT22;1458;49.728;9.228;2024-01-25T14:22:28;11.20;46.10
2897;DHT22;1458;49.728;9.228;2024-01-25T14:24:57;11.20;46.00
2897;DHT22;1458;49.728;9.228;2024-01-25T14:27:25;11.30;46.30
2897;DHT22;1458;49.728;9.228;2024-01-25T14:29:52;11.20;47.10
2897;DHT22;1458;49.728;9.228;2024-01-25T14:32:20;11.30;46.10
2897;DHT22;1458;49.728;9.228;2024-01-25T14:34:47;11.20;46.10
2897;DHT22;1458;49.728;9.228;2024-01-25T14:37:15;11.20;45.40
2897;DHT22;1458;49.728;9.228;2024-01-25T14:39:42;11.10;44.60
2897;DHT22;1458;49.728;9.228;2024-01-25T14:42:12;11.10;45.30
2897;DHT22;1458;49.728;9.228;2024-01-25T14:44:39;11.10;46.00
2897;DHT22;1458;49.728;9.228;2024-01-25T14:47:10;11.10;46.10
2897;DHT22;1458;49.728;9.228;2024-01-25T14:49:39;11.00;46.60
2897;DHT22;1458;49.728;9.228;2024-01-25T14:52:07;10.90;48.10
2897;DHT22;1458;49.728;9.228;2024-01-25T14:54:34;10.80;48.70
2897;DHT22;1458;49.728;9.228;2024-01-25T14:57:02;10.80;49.50
2897;DHT22;1458;49.728;9.228;2024-01-25T14:59:31;10.90;48.30
2897;DHT22;1458;49.728;9.228;2024-01-25T15:01:58;10.90;48.00
2897;DHT22;1458;49.728;9.228;2024-01-25T15:04:25;10.80;48.20
2897;DHT22;1458;49.728;9.228;2024-01-25T15:06:55;10.70;48.10
2897;DHT22;1458;49.728;9.228;2024-01-25T15:09:22;10.60;48.10
2897;DHT22;1458;49.728;9.228;2024-01-25T15:11:50;10.60;48.20
2897;DHT22;1458;49.728;9.228;2024-01-25T15:14:17;10.50;49.70
2897;DHT22;1458;49.728;9.228;2024-01-25T15:16:46;10.30;51.30
2897;DHT22;1458;49.728;9.228;2024-01-25T15:19:14;10.20;51.60
2897;DHT22;1458;49.728;9.228;2024-01-25T15:21:47;10.20;51.20
2897;DHT22;1458;49.728;9.228;2024-01-25T15:24:17;10.10;53.00
2897;DHT22;1458;49.728;9.228;2024-01-25T15:26:45;9.80;55.20
2897;DHT22;1458;49.728;9.228;2024-01-25T15:29:12;9.80;56.00
2897;DHT22;1458;49.728;9.228;2024-01-25T15:31:40;9.70;56.40
2897;DHT22;1458;49.728;9.228;2024-01-25T15:34:08;9.60;58.00
2897;DHT22;1458;49.728;9.228;2024-01-25T15:36:36;9.50;58.90
2897;DHT22;1458;49.728;9.228;2024-01-25T15:39:09;9.30;60.80
2897;DHT22;1458;49.728;9.228;2024-01-25T15:41:37;9.10;62.40
2897;DHT22;1458;49.728;9.228;2024-01-25T15:44:04;8.80;62.60
2897;DHT22;1458;49.728;9.228;2024-01-25T15:46:32;8.90;62.40
2897;DHT22;1458;49.728;9.228;2024-01-25T15:49:00;8.90;62.90
2897;DHT22;1458;49.728;9.228;2024-01-25T15:51:28;8.90;63.50
2897;DHT22;1458;49.728;9.228;2024-01-25T15:53:56;8.70;64.50
2897;DHT22;1458;49.728;9.228;2024-01-25T15:56:24;8.40;65.60
2897;DHT22;1458;49.728;9.228;2024-01-25T15:58:51;8.20;67.40
2897;DHT22;1458;49.728;9.228;2024-01-25T16:01:19;8.00;68.60
2897;DHT22;1458;49.728;9.228;2024-01-25T16:03:47;8.00;70.10
2897;DHT22;1458;49.728;9.228;2024-01-25T16:06:16;8.10;70.40
2897;DHT22;1458;49.728;9.228;2024-01-25T16:08:48;8.30;69.90
2897;DHT22;1458;49.728;9.228;2024-01-25T16:11:19;8.30;70.10
2897;DHT22;1458;49.728;9.228;2024-01-25T16:13:48;8.20;70.90
2897;DHT22;1458;49.728;9.228;2024-01-25T16:16:16;8.10;72.00
2897;DHT22;1458;49.728;9.228;2024-01-25T16:18:43;8.20;71.70